sensor_id;sensor_type;location;lat;lon;timestamp;pressure;altitude;pressure_sealevel;temperature;humidity
4814;BME280;15375;48.540;9.268;2023-04-24T00:01:45;96330.81;;;11.91;83.20
4814;BME280;15375;48.540;9.268;2023-04-24T00:04:10;96326.09;;;11.82;84.00
4814;BME280;15375;48.540;9.268;2023-04-24T00:06:36;96351.66;;;11.97;83.84
4814;BME280;15375;48.540;9.268;2023-04-24T00:09:03;96358.97;;;12.00;83.86
4814;BME280;15375;48.540;9.268;2023-04-24T00:11:29;96342.03;;;11.84;84.00
4814;BME280;15375;48.540;9.268;2023-04-24T00:13:56;96357.56;;;11.96;84.52
4814;BME280;15375;48.540;9.268;2023-04-24T00:16:22;96345.16;;;11.73;84.98
4814;BME280;15375;48.540;9.268;2023-04-24T00:18:48;96366.94;;;11.86;85.68
4814;BME280;15375;48.540;9.268;2023-04-24T00:21:14;96352.78;;;11.78;86.70
4814;BME280;15375;48.540;9.268;2023-04-24T00:23:41;96351.09;;;11.72;86.87
4814;BME280;15375;48.540;9.268;2023-04-24T00:26:06;96358.53;;;11.71;88.23
4814;BME280;15375;48.540;9.268;2023-04-24T00:28:31;96350.88;;;11.66;88.74
4814;BME280;15375;48.540;9.268;2023-04-24T00:30:57;96343.66;;;11.50;92.03
4814;BME280;15375;48.540;9.268;2023-04-24T00:33:22;96357.50;;;11.56;92.67
4814;BME280;15375;48.540;9.268;2023-04-24T00:35:48;96366.66;;;11.62;92.24
4814;BME280;15375;48.540;9.268;2023-04-24T00:38:13;96335.31;;;11.45;94.17
4814;BME280;15375;48.540;9.268;2023-04-24T00:40:38;96372.72;;;11.66;94.13
4814;BME280;15375;48.540;9.268;2023-04-24T00:43:04;96355.22;;;11.54;94.91
4814;BME280;15375;48.540;9.268;2023-04-24T00:45:29;96321.09;;;11.28;95.28
4814;BME280;15375;48.540;9.268;2023-04-24T00:47:56;96365.13;;;11.61;96.37
4814;BME280;15375;48.540;9.268;2023-04-24T00:50:23;96342.72;;;11.44;96.12
4814;BME280;15375;48.540;9.268;2023-04-24T00:52:49;96361.13;;;11.53;96.79
4814;BME280;15375;48.540;9.268;2023-04-24T00:55:14;96327.50;;;11.34;96.98
4814;BME280;15375;48.540;9.268;2023-04-24T00:57:40;96346.34;;;11.41;97.37
4814;BME280;15375;48.540;9.268;2023-04-24T01:00:06;96346.22;;;11.45;97.48
4814;BME280;15375;48.540;9.268;2023-04-24T01:02:35;96355.34;;;11.51;98.45
4814;BME280;15375;48.540;9.268;2023-04-24T01:05:01;96341.50;;;11.45;97.67
4814;BME280;15375;48.540;9.268;2023-04-24T01:07:27;96348.19;;;11.44;98.11
4814;BME280;15375;48.540;9.268;2023-04-24T01:09:52;96350.03;;;11.47;99.07
4814;BME280;15375;48.540;9.268;2023-04-24T01:12:18;96337.09;;;11.39;98.70
4814;BME280;15375;48.540;9.268;2023-04-24T01:14:44;96325.47;;;11.26;98.39
4814;BME280;15375;48.540;9.268;2023-04-24T01:17:10;96330.03;;;11.29;100.00
4814;BME280;15375;48.540;9.268;2023-04-24T01:19:36;96321.31;;;11.12;100.00
4814;BME280;15375;48.540;9.268;2023-04-24T01:22:02;96300.84;;;10.95;100.00
4814;BME280;15375;48.540;9.268;2023-04-24T01:24:28;96315.91;;;11.00;100.00
4814;BME280;15375;48.540;9.268;2023-04-24T01:26:54;96331.78;;;11.14;100.00
4814;BME280;15375;48.540;9.268;2023-04-24T01:29:20;96329.31;;;11.07;100.00
4814;BME280;15375;48.540;9.268;2023-04-24T01:31:46;96284.81;;;10.75;100.00
4814;BME280;15375;48.540;9.268;2023-04-24T01:34:12;96340.66;;;11.05;100.00
4814;BME280;15375;48.540;9.268;2023-04-24T01:36:37;96341.03;;;10.95;100.00
4814;BME280;15375;48.540;9.268;2023-04-24T01:39:03;96314.56;;;10.82;100.00
4814;BME280;15375;48.540;9.268;2023-04-24T01:41:30;96295.53;;;10.70;100.00
4814;BME280;15375;48.540;9.268;2023-04-24T01:43:58;96267.94;;;10.46;100.00
4814;BME280;15375;48.540;9.268;2023-04-24T01:46:24;96264.25;;;10.40;100.00
4814;BME280;15375;48.540;9.268;2023-04-24T01:48:50;96337.16;;;10.83;100.00
4814;BME280;15375;48.540;9.268;2023-04-24T01:51:16;96265.81;;;10.29;100.00
4814;BME280;15375;48.540;9.268;2023-04-24T01:53:42;96327.94;;;10.68;100.00
4814;BME280;15375;48.540;9.268;2023-04-24T01:56:07;96280.84;;;10.33;100.00
4814;BME280;15375;48.540;9.268;2023-04-24T01:58:33;96286.91;;;10.37;100.00
4814;BME280;15375;48.540;9.268;2023-04-24T02:00:59;96316.19;;;10.58;100.00
4814;BME280;15375;48.540;9.268;2023-04-24T02:03:26;96330.34;;;10.66;100.00
4814;BME280;15375;48.540;9.268;2023-04-24T02:05:51;96294.97;;;10.41;100.00
4814;BME280;15375;48.540;9.268;2023-04-24T02:08:17;96279.34;;;10.32;100.00
4814;BME280;15375;48.540;9.268;2023-04-24T02:10:42;96283.75;;;10.39;100.00
4814;BME280;15375;48.540;9.268;2023-04-24T02:13:08;96277.53;;;10.38;100.00
4814;BME280;15375;48.540;9.268;2023-04-24T02:15:33;96296.06;;;10.43;100.00
4814;BME280;15375;48.540;9.268;2023-04-24T02:17:58;96311.00;;;10.51;100.00
4814;BME280;15375;48.540;9.268;2023-04-24T02:20:24;96331.47;;;10.56;100.00
4814;BME280;15375;48.540;9.268;2023-04-24T02:22:49;96335.53;;;10.51;100.00
4814;BME280;15375;48.540;9.268;2023-04-24T02:25:15;96318.44;;;10.38;100.00
4814;BME280;15375;48.540;9.268;2023-04-24T02:27:40;96336.63;;;10.41;100.00
4814;BME280;15375;48.540;9.268;2023-04-24T02:30:06;96337.94;;;10.49;100.00
4814;BME280;15375;48.540;9.268;2023-04-24T02:32:32;96334.66;;;10.54;100.00
4814;BME280;15375;48.540;9.268;2023-04-24T02:34:59;96286.78;;;10.19;100.00
4814;BME280;15375;48.540;9.268;2023-04-24T02:37:24;96334.03;;;10.38;100.00
4814;BME280;15375;48.540;9.268;2023-04-24T02:39:50;96304.50;;;10.11;100.00
4814;BME280;15375;48.540;9.268;2023-04-24T02:42:15;96301.91;;;10.20;100.00
4814;BME280;15375;48.540;9.268;2023-04-24T02:44:40;96302.47;;;10.15;100.00
4814;BME280;15375;48.540;9.268;2023-04-24T02:47:06;96324.78;;;10.22;100.00
4814;BME280;15375;48.540;9.268;2023-04-24T02:49:32;96330.75;;;10.30;100.00
4814;BME280;15375;48.540;9.268;2023-04-24T02:51:58;96311.84;;;10.14;100.00
4814;BME280;15375;48.540;9.268;2023-04-24T02:54:23;96273.72;;;9.89;100.00
4814;BME280;15375;48.540;9.268;2023-04-24T02:56:48;96292.78;;;10.01;100.00
4814;BME280;15375;48.540;9.268;2023-04-24T02:59:14;96301.25;;;10.16;100.00
4814;BME280;15375;48.540;9.268;2023-04-24T03:01:39;96327.16;;;10.33;100.00
4814;BME280;15375;48.540;9.268;2023-04-24T03:04:04;96291.56;;;10.15;100.00
4814;BME280;15375;48.540;9.268;2023-04-24T03:06:30;96325.59;;;10.45;100.00
4814;BME280;15375;48.540;9.268;2023-04-24T03:08:57;96329.75;;;10.49;100.00
4814;BME280;15375;48.540;9.268;2023-04-24T03:11:23;96301.88;;;10.33;100.00
4814;BME280;15375;48.540;9.268;2023-04-24T03:13:48;96275.09;;;10.18;100.00
4814;BME280;15375;48.540;9.268;2023-04-24T03:16:14;96311.53;;;10.46;100.00
4814;BME280;15375;48.540;9.268;2023-04-24T03:18:39;96304.59;;;10.33;100.00
4814;BME280;15375;48.540;9.268;2023-04-24T03:21:04;96324.97;;;10.41;100.00
4814;BME280;15375;48.540;9.268;2023-04-24T03:23:31;96314.09;;;10.28;100.00
4814;BME280;15375;48.540;9.268;2023-04-24T03:25:56;96334.28;;;10.18;100.00
4814;BME280;15375;48.540;9.268;2023-04-24T03:28:21;96309.88;;;10.02;100.00
4814;BME280;15375;48.540;9.268;2023-04-24T03:30:47;96298.56;;;9.78;100.00
4814;BME280;15375;48.540;9.268;2023-04-24T03:33:12;96315.75;;;9.88;100.00
4814;BME280;15375;48.540;9.268;2023-04-24T03:35:38;96327.09;;;9.99;100.00
4814;BME280;15375;48.540;9.268;2023-04-24T03:38:03;96311.63;;;9.96;100.00
4814;BME280;15375;48.540;9.268;2023-04-24T03:40:29;96318.25;;;9.82;100.00
4814;BME280;15375;48.540;9.268;2023-04-24T03:42:55;96310.63;;;9.77;100.00
4814;BME280;15375;48.540;9.268;2023-04-24T03:45:20;96305.19;;;9.64;100.00
4814;BME280;15375;48.540;9.268;2023-04-24T03:47:46;96295.75;;;9.56;100.00
4814;BME280;15375;48.540;9.268;2023-04-24T03:50:11;96300.84;;;9.54;100.00
4814;BME280;15375;48.540;9.268;2023-04-24T03:52:36;96303.16;;;9.69;100.00
4814;BME280;15375;48.540;9.268;2023-04-24T03:55:02;96307.38;;;9.70;100.00
4814;BME280;15375;48.540;9.268;2023-04-24T03:57:27;96242.19;;;9.28;100.00
4814;BME280;15375;48.540;9.268;2023-04-24T03:59:53;96278.41;;;9.50;100.00
4814;BME280;15375;48.540;9.268;2023-04-24T04:02:19;96303.25;;;9.65;100.00
4814;BME280;15375;48.540;9.268;2023-04-24T04:04:44;96291.81;;;9.57;100.00
4814;BME280;15375;48.540;9.268;2023-04-24T04:07:09;96292.03;;;9.63;100.00
4814;BME280;15375;48.540;9.268;2023-04-24T04:09:36;96304.78;;;9.66;100.00
4814;BME280;15375;48.540;9.268;2023-04-24T04:12:01;96290.94;;;9.60;100.00
4814;BME280;15375;48.540;9.268;2023-04-24T04:14:27;96287.13;;;9.58;100.00
4814;BME280;15375;48.540;9.268;2023-04-24T04:16:52;96316.63;;;9.72;100.00
4814;BME280;15375;48.540;9.268;2023-04-24T04:19:18;96296.59;;;9.53;100.00
4814;BME280;15375;48.540;9.268;2023-04-24T04:21:43;96329.16;;;9.82;100.00
4814;BME280;15375;48.540;9.268;2023-04-24T04:24:10;96329.69;;;9.77;100.00
4814;BME280;15375;48.540;9.268;2023-04-24T04:26:36;96325.69;;;9.82;100.00
4814;BME280;15375;48.540;9.268;2023-04-24T04:29:03;96324.47;;;9.83;100.00
4814;BME280;15375;48.540;9.268;2023-04-24T04:31:28;96327.97;;;9.83;100.00
4814;BME280;15375;48.540;9.268;2023-04-24T04:33:54;96321.97;;;9.88;100.00
4814;BME280;15375;48.540;9.268;2023-04-24T04:36:19;96340.50;;;9.93;100.00
4814;BME280;15375;48.540;9.268;2023-04-24T04:38:45;96344.53;;;10.01;100.00
4814;BME280;15375;48.540;9.268;2023-04-24T04:41:10;96337.00;;;10.05;100.00
4814;BME280;15375;48.540;9.268;2023-04-24T04:43:36;96328.59;;;10.00;100.00
4814;BME280;15375;48.540;9.268;2023-04-24T04:46:01;96336.88;;;10.09;100.00
4814;BME280;15375;48.540;9.268;2023-04-24T04:48:28;96361.53;;;10.18;100.00
4814;BME280;15375;48.540;9.268;2023-04-24T04:50:53;96375.03;;;10.09;100.00
4814;BME280;15375;48.540;9.268;2023-04-24T04:53:19;96372.38;;;9.68;100.00
4814;BME280;15375;48.540;9.268;2023-04-24T04:55:44;96393.06;;;9.52;100.00
4814;BME280;15375;48.540;9.268;2023-04-24T04:58:11;96402.56;;;9.60;100.00
4814;BME280;15375;48.540;9.268;2023-04-24T05:00:36;96376.38;;;9.38;100.00
4814;BME280;15375;48.540;9.268;2023-04-24T05:03:02;96391.06;;;9.40;100.00
4814;BME280;15375;48.540;9.268;2023-04-24T05:05:28;96367.53;;;9.21;100.00
4814;BME280;15375;48.540;9.268;2023-04-24T05:07:53;96392.25;;;9.39;100.00
4814;BME280;15375;48.540;9.268;2023-04-24T05:10:18;96385.94;;;9.30;100.00
4814;BME280;15375;48.540;9.268;2023-04-24T05:12:44;96406.44;;;9.47;100.00
4814;BME280;15375;48.540;9.268;2023-04-24T05:15:10;96412.84;;;9.40;100.00
4814;BME280;15375;48.540;9.268;2023-04-24T05:17:35;96438.91;;;9.54;100.00
4814;BME280;15375;48.540;9.268;2023-04-24T05:20:01;96420.47;;;9.45;100.00
4814;BME280;15375;48.540;9.268;2023-04-24T05:22:28;96427.13;;;9.57;100.00
4814;BME280;15375;48.540;9.268;2023-04-24T05:24:54;96424.38;;;9.44;100.00
4814;BME280;15375;48.540;9.268;2023-04-24T05:27:19;96426.13;;;9.38;100.00
4814;BME280;15375;48.540;9.268;2023-04-24T05:29:45;96419.44;;;9.27;100.00
4814;BME280;15375;48.540;9.268;2023-04-24T05:32:11;96456.06;;;9.38;100.00
4814;BME280;15375;48.540;9.268;2023-04-24T05:34:36;96458.66;;;9.42;100.00
4814;BME280;15375;48.540;9.268;2023-04-24T05:37:01;96472.72;;;9.40;100.00
4814;BME280;15375;48.540;9.268;2023-04-24T05:39:27;96489.25;;;9.33;100.00
4814;BME280;15375;48.540;9.268;2023-04-24T05:41:52;96475.00;;;9.13;100.00
4814;BME280;15375;48.540;9.268;2023-04-24T05:44:17;96487.00;;;9.16;100.00
4814;BME280;15375;48.540;9.268;2023-04-24T05:46:43;96482.84;;;9.11;100.00
4814;BME280;15375;48.540;9.268;2023-04-24T05:49:08;96485.63;;;9.08;100.00
4814;BME280;15375;48.540;9.268;2023-04-24T05:51:34;96484.69;;;9.14;100.00
4814;BME280;15375;48.540;9.268;2023-04-24T05:53:59;96475.47;;;8.95;100.00
4814;BME280;15375;48.540;9.268;2023-04-24T05:56:24;96499.91;;;9.12;100.00
4814;BME280;15375;48.540;9.268;2023-04-24T05:58:50;96491.59;;;9.03;100.00
4814;BME280;15375;48.540;9.268;2023-04-24T06:01:15;96511.19;;;9.26;100.00
4814;BME280;15375;48.540;9.268;2023-04-24T06:03:41;96461.53;;;8.93;100.00
4814;BME280;15375;48.540;9.268;2023-04-24T06:06:07;96516.53;;;9.30;100.00
4814;BME280;15375;48.540;9.268;2023-04-24T06:08:33;96498.19;;;9.18;100.00
4814;BME280;15375;48.540;9.268;2023-04-24T06:10:59;96502.69;;;9.24;100.00
4814;BME280;15375;48.540;9.268;2023-04-24T06:13:24;96439.16;;;9.02;100.00
4814;BME280;15375;48.540;9.268;2023-04-24T06:15:50;96515.03;;;9.57;100.00
4814;BME280;15375;48.540;9.268;2023-04-24T06:18:15;96510.59;;;9.63;100.00
4814;BME280;15375;48.540;9.268;2023-04-24T06:20:41;96483.28;;;9.80;100.00
4814;BME280;15375;48.540;9.268;2023-04-24T06:23:06;96503.34;;;10.14;100.00
4814;BME280;15375;48.540;9.268;2023-04-24T06:25:32;96507.81;;;10.59;100.00
4814;BME280;15375;48.540;9.268;2023-04-24T06:27:57;96502.78;;;12.38;100.00
4814;BME280;15375;48.540;9.268;2023-04-24T06:30:23;96474.31;;;13.60;97.55
4814;BME280;15375;48.540;9.268;2023-04-24T06:32:48;96468.78;;;16.33;79.01
4814;BME280;15375;48.540;9.268;2023-04-24T06:35:14;96491.22;;;17.91;68.86
4814;BME280;15375;48.540;9.268;2023-04-24T06:37:40;96455.88;;;16.54;70.46
4814;BME280;15375;48.540;9.268;2023-04-24T06:40:06;96508.72;;;15.14;77.47
4814;BME280;15375;48.540;9.268;2023-04-24T06:42:32;96491.91;;;14.97;79.17
4814;BME280;15375;48.540;9.268;2023-04-24T06:44:57;96494.59;;;17.00;72.28
4814;BME280;15375;48.540;9.268;2023-04-24T06:47:23;96497.44;;;17.05;66.22
4814;BME280;15375;48.540;9.268;2023-04-24T06:49:48;96503.81;;;16.97;66.68
4814;BME280;15375;48.540;9.268;2023-04-24T06:52:16;96498.53;;;17.94;64.95
4814;BME280;15375;48.540;9.268;2023-04-24T06:54:41;96493.94;;;17.85;62.86
4814;BME280;15375;48.540;9.268;2023-04-24T06:57:08;96511.38;;;17.16;62.89
4814;BME280;15375;48.540;9.268;2023-04-24T06:59:33;96519.66;;;16.23;66.79
4814;BME280;15375;48.540;9.268;2023-04-24T07:01:58;96509.06;;;15.78;68.04
4814;BME280;15375;48.540;9.268;2023-04-24T07:04:24;96511.66;;;14.45;72.22
4814;BME280;15375;48.540;9.268;2023-04-24T07:06:50;96521.63;;;14.75;76.96
4814;BME280;15375;48.540;9.268;2023-04-24T07:09:16;96525.56;;;14.32;75.72
4814;BME280;15375;48.540;9.268;2023-04-24T07:11:43;96524.25;;;13.91;80.27
4814;BME280;15375;48.540;9.268;2023-04-24T07:14:09;96520.84;;;14.75;80.44
4814;BME280;15375;48.540;9.268;2023-04-24T07:16:35;96481.69;;;14.32;79.65
4814;BME280;15375;48.540;9.268;2023-04-24T07:19:01;96486.50;;;14.46;76.88
4814;BME280;15375;48.540;9.268;2023-04-24T07:21:26;96507.78;;;14.10;75.91
4814;BME280;15375;48.540;9.268;2023-04-24T07:23:52;96492.88;;;13.83;80.53
4814;BME280;15375;48.540;9.268;2023-04-24T07:26:18;96515.41;;;13.51;80.48
4814;BME280;15375;48.540;9.268;2023-04-24T07:28:43;96523.66;;;12.93;85.16
4814;BME280;15375;48.540;9.268;2023-04-24T07:31:10;96522.97;;;12.09;90.80
4814;BME280;15375;48.540;9.268;2023-04-24T07:33:37;96526.72;;;11.81;94.25
4814;BME280;15375;48.540;9.268;2023-04-24T07:36:02;96511.41;;;11.84;98.95
4814;BME280;15375;48.540;9.268;2023-04-24T07:38:31;96544.16;;;12.18;94.97
4814;BME280;15375;48.540;9.268;2023-04-24T07:40:57;96548.03;;;12.08;99.54
4814;BME280;15375;48.540;9.268;2023-04-24T07:43:23;96557.25;;;13.33;92.50
4814;BME280;15375;48.540;9.268;2023-04-24T07:45:52;96553.91;;;13.48;90.26
4814;BME280;15375;48.540;9.268;2023-04-24T07:48:17;96534.44;;;12.97;77.40
4814;BME280;15375;48.540;9.268;2023-04-24T07:50:43;96566.13;;;12.67;76.01
4814;BME280;15375;48.540;9.268;2023-04-24T07:53:09;96519.31;;;12.74;72.81
4814;BME280;15375;48.540;9.268;2023-04-24T07:55:35;96544.44;;;13.21;69.78
4814;BME280;15375;48.540;9.268;2023-04-24T07:58:00;96540.53;;;13.86;68.55
4814;BME280;15375;48.540;9.268;2023-04-24T08:00:26;96545.88;;;13.71;69.93
4814;BME280;15375;48.540;9.268;2023-04-24T08:02:51;96538.50;;;13.14;69.73
4814;BME280;15375;48.540;9.268;2023-04-24T08:05:16;96588.69;;;12.80;71.98
4814;BME280;15375;48.540;9.268;2023-04-24T08:07:42;96590.41;;;12.56;76.08
4814;BME280;15375;48.540;9.268;2023-04-24T08:10:10;96594.38;;;12.33;73.45
4814;BME280;15375;48.540;9.268;2023-04-24T08:12:36;96603.00;;;12.32;76.55
4814;BME280;15375;48.540;9.268;2023-04-24T08:15:02;96568.16;;;12.85;77.74
4814;BME280;15375;48.540;9.268;2023-04-24T08:17:27;96587.13;;;13.59;71.57
4814;BME280;15375;48.540;9.268;2023-04-24T08:19:52;96569.78;;;13.62;69.75
4814;BME280;15375;48.540;9.268;2023-04-24T08:22:24;96587.41;;;13.03;67.25
4814;BME280;15375;48.540;9.268;2023-04-24T08:24:49;96629.53;;;13.36;69.84
4814;BME280;15375;48.540;9.268;2023-04-24T08:27:15;96600.88;;;12.88;67.60
4814;BME280;15375;48.540;9.268;2023-04-24T08:29:40;96628.13;;;12.18;68.73
4814;BME280;15375;48.540;9.268;2023-04-24T08:32:05;96635.03;;;12.09;69.54
4814;BME280;15375;48.540;9.268;2023-04-24T08:34:31;96596.53;;;11.48;68.72
4814;BME280;15375;48.540;9.268;2023-04-24T08:36:56;96617.25;;;11.58;69.77
4814;BME280;15375;48.540;9.268;2023-04-24T08:39:22;96615.53;;;11.51;70.52
4814;BME280;15375;48.540;9.268;2023-04-24T08:41:48;96598.69;;;11.53;68.23
4814;BME280;15375;48.540;9.268;2023-04-24T08:44:13;96614.56;;;11.33;71.56
4814;BME280;15375;48.540;9.268;2023-04-24T08:46:43;96611.41;;;11.34;71.10
4814;BME280;15375;48.540;9.268;2023-04-24T08:49:12;96613.13;;;11.41;72.71
4814;BME280;15375;48.540;9.268;2023-04-24T08:51:39;96597.72;;;11.60;69.04
4814;BME280;15375;48.540;9.268;2023-04-24T08:54:04;96612.88;;;11.73;68.99
4814;BME280;15375;48.540;9.268;2023-04-24T08:56:33;96631.88;;;11.77;68.43
4814;BME280;15375;48.540;9.268;2023-04-24T08:58:59;96613.84;;;12.01;68.75
4814;BME280;15375;48.540;9.268;2023-04-24T09:01:25;96639.69;;;12.65;67.64
4814;BME280;15375;48.540;9.268;2023-04-24T09:03:51;96564.47;;;12.17;62.75
4814;BME280;15375;48.540;9.268;2023-04-24T09:06:19;96633.22;;;12.80;62.45
4814;BME280;15375;48.540;9.268;2023-04-24T09:08:48;96625.13;;;12.99;63.68
4814;BME280;15375;48.540;9.268;2023-04-24T09:11:15;96620.78;;;13.19;59.13
4814;BME280;15375;48.540;9.268;2023-04-24T09:13:41;96617.94;;;13.32;60.16
4814;BME280;15375;48.540;9.268;2023-04-24T09:16:06;96609.66;;;13.81;58.11
4814;BME280;15375;48.540;9.268;2023-04-24T09:18:32;96589.25;;;13.64;58.09
4814;BME280;15375;48.540;9.268;2023-04-24T09:21:07;96610.06;;;14.70;55.63
4814;BME280;15375;48.540;9.268;2023-04-24T09:23:32;96618.75;;;14.78;57.22
4814;BME280;15375;48.540;9.268;2023-04-24T09:25:59;96633.75;;;14.04;60.02
4814;BME280;15375;48.540;9.268;2023-04-24T09:28:33;96634.47;;;13.59;60.50
4814;BME280;15375;48.540;9.268;2023-04-24T09:31:09;96659.44;;;12.69;62.41
4814;BME280;15375;48.540;9.268;2023-04-24T09:33:35;96639.22;;;13.28;60.82
4814;BME280;15375;48.540;9.268;2023-04-24T09:36:02;96648.81;;;13.90;61.26
4814;BME280;15375;48.540;9.268;2023-04-24T09:38:37;96618.81;;;13.87;59.49
4814;BME280;15375;48.540;9.268;2023-04-24T09:41:05;96653.56;;;14.62;57.32
4814;BME280;15375;48.540;9.268;2023-04-24T09:43:31;96642.44;;;14.12;56.96
4814;BME280;15375;48.540;9.268;2023-04-24T09:45:58;96637.69;;;13.85;57.51
4814;BME280;15375;48.540;9.268;2023-04-24T09:48:35;96663.84;;;13.68;58.34
4814;BME280;15375;48.540;9.268;2023-04-24T09:51:02;96676.81;;;13.27;61.08
4814;BME280;15375;48.540;9.268;2023-04-24T09:53:30;96679.28;;;12.82;63.31
4814;BME280;15375;48.540;9.268;2023-04-24T09:56:01;96676.63;;;12.91;64.84
4814;BME280;15375;48.540;9.268;2023-04-24T09:58:28;96661.91;;;13.28;64.62
4814;BME280;15375;48.540;9.268;2023-04-24T10:00:54;96659.13;;;13.59;62.65
4814;BME280;15375;48.540;9.268;2023-04-24T10:03:20;96682.72;;;13.57;61.58
4814;BME280;15375;48.540;9.268;2023-04-24T10:05:46;96673.91;;;13.71;59.74
4814;BME280;15375;48.540;9.268;2023-04-24T10:08:12;96674.44;;;14.60;60.01
4814;BME280;15375;48.540;9.268;2023-04-24T10:10:43;96647.69;;;14.79;56.93
4814;BME280;15375;48.540;9.268;2023-04-24T10:13:10;96642.50;;;14.90;55.18
4814;BME280;15375;48.540;9.268;2023-04-24T10:15:37;96679.31;;;14.56;57.60
4814;BME280;15375;48.540;9.268;2023-04-24T10:18:04;96641.03;;;12.91;56.53
4814;BME280;15375;48.540;9.268;2023-04-24T10:20:35;96669.69;;;12.77;60.37
4814;BME280;15375;48.540;9.268;2023-04-24T10:23:02;96635.47;;;12.51;59.63
4814;BME280;15375;48.540;9.268;2023-04-24T10:25:33;96658.16;;;12.82;57.84
4814;BME280;15375;48.540;9.268;2023-04-24T10:28:00;96684.72;;;13.25;58.85
4814;BME280;15375;48.540;9.268;2023-04-24T10:30:28;96679.75;;;14.18;59.17
4814;BME280;15375;48.540;9.268;2023-04-24T10:32:56;96667.25;;;13.99;56.50
4814;BME280;15375;48.540;9.268;2023-04-24T10:35:22;96659.16;;;13.95;55.29
4814;BME280;15375;48.540;9.268;2023-04-24T10:37:56;96683.22;;;13.91;55.30
4814;BME280;15375;48.540;9.268;2023-04-24T10:40:27;96668.75;;;14.00;52.53
4814;BME280;15375;48.540;9.268;2023-04-24T10:42:55;96682.41;;;13.64;54.17
4814;BME280;15375;48.540;9.268;2023-04-24T10:45:22;96659.94;;;13.29;52.53
4814;BME280;15375;48.540;9.268;2023-04-24T10:47:52;96682.94;;;13.31;54.17
4814;BME280;15375;48.540;9.268;2023-04-24T10:50:18;96711.22;;;13.07;56.33
4814;BME280;15375;48.540;9.268;2023-04-24T10:52:48;96705.66;;;12.89;56.19
4814;BME280;15375;48.540;9.268;2023-04-24T10:55:16;96657.78;;;12.93;57.70
4814;BME280;15375;48.540;9.268;2023-04-24T10:58:04;96697.16;;;12.96;56.28
4814;BME280;15375;48.540;9.268;2023-04-24T11:00:30;96677.22;;;12.43;59.20
4814;BME280;15375;48.540;9.268;2023-04-24T11:02:55;96704.25;;;12.41;58.75
4814;BME280;15375;48.540;9.268;2023-04-24T11:05:22;96727.16;;;12.56;61.15
4814;BME280;15375;48.540;9.268;2023-04-24T11:08:16;96727.28;;;12.74;63.08
4814;BME280;15375;48.540;9.268;2023-04-24T11:10:55;96730.22;;;13.01;62.10
4814;BME280;15375;48.540;9.268;2023-04-24T11:13:22;96728.31;;;13.11;60.49
4814;BME280;15375;48.540;9.268;2023-04-24T11:16:14;96754.03;;;13.13;62.35
4814;BME280;15375;48.540;9.268;2023-04-24T11:18:42;96737.47;;;12.95;61.49
4814;BME280;15375;48.540;9.268;2023-04-24T11:21:17;96731.59;;;12.62;62.54
4814;BME280;15375;48.540;9.268;2023-04-24T11:23:43;96755.72;;;12.76;61.98
4814;BME280;15375;48.540;9.268;2023-04-24T11:26:11;96763.63;;;12.96;63.62
4814;BME280;15375;48.540;9.268;2023-04-24T11:28:37;96754.03;;;13.13;63.49
4814;BME280;15375;48.540;9.268;2023-04-24T11:31:34;96755.09;;;13.16;57.69
4814;BME280;15375;48.540;9.268;2023-04-24T11:34:14;96749.81;;;12.78;58.66
4814;BME280;15375;48.540;9.268;2023-04-24T11:36:42;96739.47;;;12.39;60.27
4814;BME280;15375;48.540;9.268;2023-04-24T11:39:08;96752.34;;;12.51;62.05
4814;BME280;15375;48.540;9.268;2023-04-24T11:41:34;96747.63;;;12.17;60.42
4814;BME280;15375;48.540;9.268;2023-04-24T11:44:00;96750.38;;;12.17;60.56
4814;BME280;15375;48.540;9.268;2023-04-24T11:46:30;96766.38;;;12.40;59.43
4814;BME280;15375;48.540;9.268;2023-04-24T11:48:56;96769.47;;;12.30;62.96
4814;BME280;15375;48.540;9.268;2023-04-24T11:51:23;96755.50;;;12.28;60.87
4814;BME280;15375;48.540;9.268;2023-04-24T11:53:50;96762.34;;;12.32;61.47
4814;BME280;15375;48.540;9.268;2023-04-24T11:56:19;96751.38;;;12.10;60.84
4814;BME280;15375;48.540;9.268;2023-04-24T11:58:46;96749.03;;;12.22;61.84
4814;BME280;15375;48.540;9.268;2023-04-24T12:01:12;96775.56;;;12.34;63.12
4814;BME280;15375;48.540;9.268;2023-04-24T12:03:37;96758.94;;;12.41;61.98
4814;BME280;15375;48.540;9.268;2023-04-24T12:06:06;96768.97;;;12.78;60.23
4814;BME280;15375;48.540;9.268;2023-04-24T12:08:35;96752.09;;;12.58;60.71
4814;BME280;15375;48.540;9.268;2023-04-24T12:11:04;96786.84;;;12.70;61.79
4814;BME280;15375;48.540;9.268;2023-04-24T12:13:33;96760.19;;;12.83;64.08
4814;BME280;15375;48.540;9.268;2023-04-24T12:15:59;96784.09;;;12.92;63.06
4814;BME280;15375;48.540;9.268;2023-04-24T12:18:24;96805.41;;;13.31;61.91
4814;BME280;15375;48.540;9.268;2023-04-24T12:20:50;96798.94;;;13.47;59.84
4814;BME280;15375;48.540;9.268;2023-04-24T12:23:16;96759.34;;;13.17;59.22
4814;BME280;15375;48.540;9.268;2023-04-24T12:25:42;96812.94;;;13.05;59.31
4814;BME280;15375;48.540;9.268;2023-04-24T12:28:10;96815.25;;;12.85;61.47
4814;BME280;15375;48.540;9.268;2023-04-24T12:30:48;96802.19;;;12.33;61.96
4814;BME280;15375;48.540;9.268;2023-04-24T12:33:19;96817.09;;;12.07;62.18
4814;BME280;15375;48.540;9.268;2023-04-24T12:35:45;96822.88;;;12.09;63.14
4814;BME280;15375;48.540;9.268;2023-04-24T12:38:15;96784.94;;;12.11;63.75
4814;BME280;15375;48.540;9.268;2023-04-24T12:40:41;96814.25;;;12.10;62.27
4814;BME280;15375;48.540;9.268;2023-04-24T12:43:18;96803.22;;;12.01;62.26
4814;BME280;15375;48.540;9.268;2023-04-24T12:45:44;96814.44;;;12.16;63.04
4814;BME280;15375;48.540;9.268;2023-04-24T12:48:10;96817.19;;;12.03;64.35
4814;BME280;15375;48.540;9.268;2023-04-24T12:50:36;96824.75;;;11.99;63.64
4814;BME280;15375;48.540;9.268;2023-04-24T12:53:04;96789.88;;;11.78;63.07
4814;BME280;15375;48.540;9.268;2023-04-24T12:55:29;96790.44;;;11.86;62.67
4814;BME280;15375;48.540;9.268;2023-04-24T12:57:55;96806.28;;;11.78;61.22
4814;BME280;15375;48.540;9.268;2023-04-24T13:00:21;96783.88;;;11.83;61.08
4814;BME280;15375;48.540;9.268;2023-04-24T13:02:47;96763.06;;;12.11;59.87
4814;BME280;15375;48.540;9.268;2023-04-24T13:05:12;96807.63;;;12.46;59.96
4814;BME280;15375;48.540;9.268;2023-04-24T13:07:39;96799.69;;;12.60;60.45